Time;durP1;ratioP1;P1;durP2;ratioP2;P2;SDS_P1;SDS_P2;PMS_P1;PMS_P2;Temp;Humidity;BMP_temperature;BMP_pressure;BME280_temperature;BME280_humidity;BME280_pressure;Samples;Min_cycle;Max_cycle;Signal;HPM_P1;HPM_P2
2022/09/30 00:01:16;;;;;;;2.05;1.15;;;;;;;;;;6154201;23;20013;-76
2022/09/30 00:03:42;;;;;;;1.25;1.15;;;;;;;;;;6152395;23;20009;-76
2022/09/30 00:06:08;;;;;;;2.15;1.50;;;;;;;;;;6153771;23;20025;-76
2022/09/30 00:08:38;;;;;;;1.88;1.15;;;9.00;99.90;;;;;;6154138;23;20009;-76
2022/09/30 00:11:16;;;;;;;0.80;0.80;;;9.10;99.90;;;;;;6153528;23;20020;-76
2022/09/30 00:13:43;;;;;;;1.80;1.08;;;9.00;99.90;;;;;;6153623;23;20073;-76
2022/09/30 00:16:11;;;;;;;0.80;0.80;;;9.20;99.90;;;;;;6153126;23;20377;-76
2022/09/30 00:18:37;;;;;;;1.23;1.13;;;9.20;99.90;;;;;;6153656;23;20009;-76
2022/09/30 00:21:05;;;;;;;1.20;1.10;;;9.20;99.90;;;;;;6153874;23;20006;-77
2022/09/30 00:23:31;;;;;;;1.00;0.90;;;;;;;;;;6154050;23;20010;-76
2022/09/30 00:25:59;;;;;;;3.17;1.77;;;9.10;99.90;;;;;;6153557;23;20005;-76
2022/09/30 00:28:26;;;;;;;1.23;1.10;;;;;;;;;;6152889;23;20044;-76
2022/09/30 00:30:52;;;;;;;2.92;1.48;;;;;;;;;;6152894;23;20017;-76
2022/09/30 00:33:18;;;;;;;5.90;1.75;;;;;;;;;;6153449;23;20336;-76
2022/09/30 00:35:44;;;;;;;2.33;1.23;;;;;;;;;;6153203;23;20002;-77
2022/09/30 00:38:09;;;;;;;2.00;1.70;;;9.00;99.90;;;;;;6153159;23;20009;-77
2022/09/30 00:40:38;;;;;;;1.73;1.27;;;8.90;99.90;;;;;;6151769;23;20088;-76
2022/09/30 00:43:11;;;;;;;4.20;1.20;;;9.10;99.90;;;;;;6153546;23;20393;-77
2022/09/30 00:45:37;;;;;;;1.23;1.00;;;;;;;;;;6152847;23;20471;-76
2022/09/30 00:48:11;;;;;;;2.80;1.38;;;9.00;99.90;;;;;;6153135;23;20001;-76
2022/09/30 00:50:45;;;;;;;3.25;1.48;;;9.40;99.90;;;;;;6152753;23;20055;-77
2022/09/30 00:54:18;;;;;;;2.88;1.40;;;9.20;99.90;;;;;;6153834;23;19998;-76
2022/09/30 00:56:51;;;;;;;2.60;1.20;;;9.00;99.90;;;;;;6078518;23;20031;-76
2022/09/30 00:59:26;;;;;;;1.50;1.40;;;9.10;99.90;;;;;;6091350;23;20339;-77
2022/09/30 01:01:52;;;;;;;4.30;1.70;;;8.90;99.90;;;;;;6091426;23;20015;-76
2022/09/30 01:04:21;;;;;;;2.13;1.23;;;9.10;99.90;;;;;;6091012;23;20572;-76
2022/09/30 01:06:47;;;;;;;4.10;1.95;;;;;;;;;;6091039;23;20401;-76
2022/09/30 01:09:13;;;;;;;2.83;1.65;;;9.30;99.90;;;;;;6091255;23;20011;-76
2022/09/30 01:11:39;;;;;;;1.80;1.45;;;;;;;;;;6090946;23;20013;-77
2022/09/30 01:14:16;;;;;;;2.17;1.38;;;9.60;99.90;;;;;;6090633;23;20492;-77
2022/09/30 01:17:10;;;;;;;1.67;0.95;;;9.20;99.90;;;;;;6091310;23;20025;-77
2022/09/30 01:20:20;;;;;;;1.60;1.50;;;9.40;99.90;;;;;;6090988;23;20112;-76
2022/09/30 01:23:13;;;;;;;3.92;1.23;;;9.40;99.90;;;;;;6033640;23;20067;-75
2022/09/30 01:25:57;;;;;;;2.20;1.50;;;9.40;99.90;;;;;;6033248;23;20011;-77
2022/09/30 01:29:06;;;;;;;2.17;1.55;;;9.40;99.90;;;;;;6091204;23;20498;-77
2022/09/30 01:31:32;;;;;;;5.25;1.75;;;;;;;;;;6005196;23;20083;-77
2022/09/30 01:33:58;;;;;;;2.72;1.70;;;;;;;;;;6005229;23;20042;-76
2022/09/30 01:36:53;;;;;;;5.82;1.60;;;9.30;99.90;;;;;;6005099;23;20007;-76
2022/09/30 01:39:31;;;;;;;4.47;1.42;;;9.20;99.90;;;;;;6004865;23;20015;-77
2022/09/30 01:42:16;;;;;;;;;;;9.10;99.90;;;;;;6005763;23;20112;-77
2022/09/30 01:45:08;;;;;;;2.40;1.48;;;8.70;99.90;;;;;;6004111;23;19902;-77
2022/09/30 01:47:47;;;;;;;1.83;1.58;;;9.30;99.90;;;;;;6003382;23;20411;-76
2022/09/30 01:50:22;;;;;;;1.10;1.00;;;9.30;99.90;;;;;;6004912;23;20023;-76
2022/09/30 01:53:05;;;;;;;1.00;0.90;;;8.70;99.90;;;;;;6004884;23;20010;-76
2022/09/30 01:55:46;;;;;;;1.42;1.10;;;9.20;99.90;;;;;;6004822;23;20007;-76
2022/09/30 01:58:31;;;;;;;1.50;1.25;;;8.60;99.90;;;;;;5981458;23;20019;-77
2022/09/30 02:01:00;;;;;;;2.10;1.65;;;9.30;99.90;;;;;;6061927;23;20010;-77
2022/09/30 02:03:37;;;;;;;3.53;1.52;;;8.70;99.90;;;;;;6061841;23;20018;-76
2022/09/30 02:06:17;;;;;;;4.87;1.83;;;8.40;99.90;;;;;;6061350;23;20007;-76
2022/09/30 02:09:04;;;;;;;2.30;1.30;;;8.90;99.90;;;;;;6112414;23;20263;-77
2022/09/30 02:11:35;;;;;;;1.80;1.70;;;8.50;99.90;;;;;;6152477;23;20473;-76
2022/09/30 02:14:01;;;;;;;1.30;1.20;;;;;;;;;;6152313;23;20232;-76
2022/09/30 02:16:36;;;;;;;1.23;1.08;;;8.20;99.90;;;;;;6152261;23;20448;-76
2022/09/30 02:19:19;;;;;;;2.53;1.67;;;8.30;99.90;;;;;;6152388;23;20456;-77
2022/09/30 02:21:55;;;;;;;1.85;1.25;;;8.50;99.90;;;;;;6152308;23;20111;-77
2022/09/30 02:24:24;;;;;;;5.30;1.63;;;8.60;99.90;;;;;;6150462;23;20016;-76
2022/09/30 02:26:55;;;;;;;2.72;2.28;;;8.60;99.90;;;;;;6152310;23;20001;-77
2022/09/30 02:29:30;;;;;;;2.20;1.67;;;8.50;99.90;;;;;;6151971;23;20496;-76
2022/09/30 02:32:03;;;;;;;9.05;1.35;;;8.70;99.90;;;;;;6152154;23;20009;-77
2022/09/30 02:34:42;;;;;;;2.88;1.67;;;8.60;99.90;;;;;;6152690;23;20026;-77
2022/09/30 02:37:23;;;;;;;2.10;1.30;;;8.60;99.90;;;;;;6151979;23;20548;-77
2022/09/30 02:40:25;;;;;;;2.13;1.38;;;8.40;99.90;;;;;;6152133;23;19997;-76
2022/09/30 02:42:51;;;;;;;2.15;1.58;;;8.40;99.90;;;;;;6152343;23;20010;-76
2022/09/30 02:45:21;;;;;;;2.70;1.75;;;8.50;99.90;;;;;;6151450;23;20001;-76
2022/09/30 02:48:15;;;;;;;2.97;1.55;;;8.40;99.90;;;;;;6152031;23;20001;-76
2022/09/30 02:50:49;;;;;;;2.90;1.52;;;9.00;99.90;;;;;;6151735;23;20023;-76
2022/09/30 02:53:36;;;;;;;3.95;2.05;;;8.50;99.90;;;;;;6151997;23;20008;-77
2022/09/30 02:56:08;;;;;;;4.60;1.75;;;8.30;99.90;;;;;;6151864;23;20006;-76
2022/09/30 02:58:38;;;;;;;2.95;2.20;;;;;;;;;;6151866;23;20080;-77
2022/09/30 03:01:06;;;;;;;1.67;1.58;;;8.40;99.90;;;;;;6151951;23;20012;-77
2022/09/30 03:03:36;;;;;;;1.52;1.40;;;8.10;99.90;;;;;;6152063;23;20009;-76
2022/09/30 03:06:03;;;;;;;1.60;1.48;;;8.30;99.90;;;;;;6151780;23;20009;-76
2022/09/30 03:08:29;;;;;;;2.53;1.75;;;8.80;99.90;;;;;;6151963;23;20005;-76
2022/09/30 03:10:55;;;;;;;2.67;1.95;;;;;;;;;;6150257;23;20024;-77
2022/09/30 03:14:07;;;;;;;1.13;1.00;;;8.50;99.90;;;;;;6152334;23;20084;-76
2022/09/30 03:17:06;;;;;;;2.53;1.30;;;8.40;99.90;;;;;;6151947;23;20437;-77
2022/09/30 03:19:41;;;;;;;2.40;1.73;;;8.20;99.90;;;;;;6154375;23;20001;-77
2022/09/30 03:22:27;;;;;;;1.52;1.30;;;8.60;99.90;;;;;;6152093;23;20376;-76
2022/09/30 03:25:15;;;;;;;3.15;1.60;;;8.40;99.90;;;;;;6154193;23;20377;-77
2022/09/30 03:28:15;;;;;;;1.67;1.27;;;8.20;99.90;;;;;;6154316;23;20041;-77
2022/09/30 03:31:01;;;;;;;1.92;1.27;;;8.30;99.90;;;;;;6154008;23;20049;-76
2022/09/30 03:33:39;;;;;;;3.58;1.45;;;8.30;99.90;;;;;;6152151;23;20084;-77
2022/09/30 03:36:12;;;;;;;;;;;8.30;99.90;;;;;;6154470;23;20012;-77
2022/09/30 03:38:51;;;;;;;2.95;1.40;;;8.10;99.90;;;;;;6153758;23;20237;-76
2022/09/30 03:41:39;;;;;;;4.43;1.40;;;8.10;99.90;;;;;;6153959;23;20001;-77
2022/09/30 03:44:27;;;;;;;1.10;1.00;;;8.10;99.90;;;;;;6153391;23;20002;-76
2022/09/30 03:46:58;;;;;;;1.95;1.23;;;8.00;99.90;;;;;;6153651;23;20383;-76
2022/09/30 03:49:30;;;;;;;1.88;1.33;;;8.00;99.90;;;;;;6153803;23;20524;-77
2022/09/30 03:51:56;;;;;;;1.35;0.90;;;7.60;99.90;;;;;;6153434;23;20001;-77
2022/09/30 03:54:22;;;;;;;2.40;1.20;;;7.70;99.90;;;;;;6153978;23;20033;-77
2022/09/30 03:56:49;;;;;;;1.30;0.85;;;8.00;99.90;;;;;;6153456;23;20569;-76
2022/09/30 03:59:27;;;;;;;4.90;1.33;;;7.80;99.90;;;;;;6153665;23;20067;-77
2022/09/30 04:01:53;;;;;;;3.33;1.00;;;7.70;99.90;;;;;;6153963;23;20002;-76
2022/09/30 04:04:19;;;;;;;1.25;0.95;;;7.80;99.90;;;;;;6153599;23;20056;-76
2022/09/30 04:06:45;;;;;;;0.98;0.90;;;8.20;99.90;;;;;;6153542;23;20005;-76
2022/09/30 04:09:11;;;;;;;1.13;1.02;;;7.60;99.90;;;;;;6153794;23;20064;-76
2022/09/30 04:11:37;;;;;;;1.45;1.35;;;;;;;;;;6153912;23;20018;-77
2022/09/30 04:14:04;;;;;;;7.90;1.20;;;;;;;;;;6153318;23;20012;-77
2022/09/30 04:16:30;;;;;;;1.55;1.08;;;;;;;;;;6153333;23;20001;-77
2022/09/30 04:18:56;;;;;;;1.52;0.95;;;7.90;99.90;;;;;;6153403;23;20001;-77
2022/09/30 04:21:22;;;;;;;0.93;0.80;;;;;;;;;;6153885;23;20005;-79
2022/09/30 04:23:49;;;;;;;0.80;0.80;;;;;;;;;;6153812;23;20018;-78
2022/09/30 04:26:18;;;;;;;4.97;1.15;;;7.70;99.90;;;;;;6153730;23;20009;-79
2022/09/30 04:28:44;;;;;;;4.22;1.20;;;;;;;;;;6152993;23;20449;-78
2022/09/30 04:31:12;;;;;;;5.38;1.45;;;7.90;99.90;;;;;;6153500;23;20142;-79
2022/09/30 04:33:38;;;;;;;1.58;1.42;;;;;;;;;;6151562;23;20005;-79
2022/09/30 04:36:05;;;;;;;1.30;1.20;;;7.60;99.90;;;;;;6153182;23;20005;-79
2022/09/30 04:38:31;;;;;;;2.00;1.10;;;8.20;99.90;;;;;;6153577;23;20081;-79
2022/09/30 04:40:57;;;;;;;7.00;2.80;;;;;;;;;;6153595;23;20036;-78
2022/09/30 04:43:24;;;;;;;1.07;0.97;;;;;;;;;;6153569;23;20088;-78
2022/09/30 04:45:51;;;;;;;1.65;1.40;;;7.70;99.90;;;;;;6152915;23;20012;-78
2022/09/30 04:48:17;;;;;;;2.83;1.17;;;7.30;99.90;;;;;;6153224;23;20612;-79
2022/09/30 04:50:43;;;;;;;3.05;1.60;;;8.00;99.90;;;;;;6153038;23;20665;-78
2022/09/30 04:53:13;;;;;;;2.53;1.23;;;7.40;99.90;;;;;;6153126;23;20511;-78
2022/09/30 04:55:39;;;;;;;1.73;1.15;;;7.60;99.90;;;;;;6153304;23;20349;-78
2022/09/30 04:58:05;;;;;;;2.03;1.30;;;;;;;;;;6152940;23;20049;-79
2022/09/30 05:00:31;;;;;;;1.20;0.80;;;;;;;;;;6153050;23;20005;-78
2022/09/30 05:02:57;;;;;;;7.18;1.80;;;;;;;;;;6152730;23;20021;-79
2022/09/30 05:05:23;;;;;;;1.27;1.00;;;7.60;99.90;;;;;;6152353;23;20002;-79
2022/09/30 05:07:49;;;;;;;0.98;0.80;;;7.60;99.90;;;;;;6152943;23;20048;-78
2022/09/30 05:10:15;;;;;;;1.85;0.90;;;7.70;99.90;;;;;;6152750;23;20072;-78
2022/09/30 05:12:41;;;;;;;1.45;0.70;;;7.60;99.90;;;;;;6152886;23;20009;-78
2022/09/30 05:15:08;;;;;;;1.30;1.20;;;7.50;99.90;;;;;;6152610;23;20006;-79
2022/09/30 05:17:34;;;;;;;0.88;0.85;;;7.40;99.90;;;;;;6152941;23;20001;-77
2022/09/30 05:20:01;;;;;;;1.33;1.20;;;7.50;99.90;;;;;;6153149;23;20030;-77
2022/09/30 05:22:27;;;;;;;1.70;1.30;;;7.50;99.90;;;;;;6148069;23;20189;-76
2022/09/30 05:24:57;;;;;;;2.25;1.90;;;7.50;99.90;;;;;;6150793;23;20012;-76
2022/09/30 05:27:23;;;;;;;1.27;1.17;;;7.40;99.90;;;;;;6149842;23;20001;-76
2022/09/30 05:29:49;;;;;;;3.95;1.17;;;;;;;;;;6149346;23;20075;-76
2022/09/30 05:32:16;;;;;;;1.35;0.90;;;;;;;;;;6149440;23;20013;-76
2022/09/30 05:34:41;;;;;;;2.30;1.55;;;7.60;99.90;;;;;;6150077;23;20033;-76
2022/09/30 05:37:11;;;;;;;2.20;1.38;;;;;;;;;;6150293;23;20465;-76
2022/09/30 05:39:37;;;;;;;8.88;1.63;;;;;;;;;;6150694;23;20009;-76
2022/09/30 05:42:03;;;;;;;2.00;1.85;;;7.60;99.90;;;;;;6150604;23;20021;-76
2022/09/30 05:44:28;;;;;;;4.13;2.15;;;;;;;;;;6150806;23;20029;-85
2022/09/30 05:46:54;;;;;;;1.98;1.58;;;;;;;;;;6150732;23;20705;-80
2022/09/30 05:49:20;;;;;;;2.72;1.55;;;;;;;;;;6150741;23;20014;-80
2022/09/30 05:51:46;;;;;;;3.60;1.90;;;7.80;99.90;;;;;;6147540;23;20113;-81
2022/09/30 05:54:13;;;;;;;2.17;1.70;;;7.80;99.90;;;;;;6150415;23;19998;-84
2022/09/30 05:56:39;;;;;;;1.30;1.20;;;7.60;99.90;;;;;;6150112;23;20444;-79
2022/09/30 05:59:05;;;;;;;2.22;1.52;;;7.60;99.90;;;;;;6150213;23;20017;-79
2022/09/30 06:01:31;;;;;;;0.98;0.85;;;7.60;99.90;;;;;;6150475;23;20006;-79
2022/09/30 06:03:57;;;;;;;1.60;1.30;;;;;;;;;;6149306;23;20040;-80
2022/09/30 06:06:23;;;;;;;1.30;1.20;;;;;;;;;;6150433;23;20072;-78
2022/09/30 06:08:49;;;;;;;1.58;1.48;;;;;;;;;;6149155;23;20009;-79
2022/09/30 06:11:22;;;;;;;1.58;1.20;;;7.90;99.90;;;;;;6151134;23;20013;-79
2022/09/30 06:13:48;;;;;;;1.55;1.23;;;;;;;;;;6150713;23;20021;-79
2022/09/30 06:16:14;;;;;;;1.65;1.40;;;;;;;;;;6150146;23;20400;-79
2022/09/30 06:18:41;;;;;;;1.40;1.30;;;8.00;99.90;;;;;;6150706;23;20333;-78
2022/09/30 06:21:09;;;;;;;1.77;1.38;;;8.00;99.90;;;;;;6140266;23;20006;-85
2022/09/30 06:23:35;;;;;;;2.08;1.42;;;;;;;;;;6146656;23;20385;-84
2022/09/30 06:26:03;;;;;;;1.38;1.27;;;8.40;99.90;;;;;;6141455;23;20080;-81
2022/09/30 06:28:29;;;;;;;1.88;1.45;;;8.40;99.90;;;;;;6149739;23;19998;-83
2022/09/30 06:30:54;;;;;;;3.53;1.98;;;8.70;99.90;;;;;;6147320;23;20014;-82
2022/09/30 06:33:21;;;;;;;2.65;1.75;;;;;;;;;;6147433;23;20084;-84
2022/09/30 06:35:47;;;;;;;2.30;2.10;;;;;;;;;;6150182;23;20010;-89
2022/09/30 06:38:16;;;;;;;2.30;1.52;;;9.00;99.90;;;;;;6150637;23;20002;-80
2022/09/30 06:40:43;;;;;;;1.85;1.40;;;9.20;99.90;;;;;;6139711;23;20375;-79
2022/09/30 06:43:10;;;;;;;1.23;1.10;;;;;;;;;;6146988;23;20006;-79
2022/09/30 06:45:36;;;;;;;1.98;1.88;;;;;;;;;;6148516;23;20084;-79
2022/09/30 06:48:04;;;;;;;4.13;1.60;;;9.70;99.90;;;;;;6149520;23;19997;-79
2022/09/30 06:50:30;;;;;;;1.70;1.60;;;;;;;;;;6141951;23;20052;-79
2022/09/30 06:52:58;;;;;;;2.30;1.80;;;10.70;99.90;;;;;;6147253;23;20068;-79
2022/09/30 06:55:26;;;;;;;2.17;1.70;;;;;;;;;;6146718;23;20453;-80
2022/09/30 06:57:52;;;;;;;1.30;1.17;;;;;;;;;;6149822;23;20014;-79
2022/09/30 07:00:18;;;;;;;1.80;1.27;;;;;;;;;;6141074;23;20005;-79
2022/09/30 07:02:44;;;;;;;2.22;2.03;;;;;;;;;;6145664;23;20397;-81
2022/09/30 07:05:10;;;;;;;1.90;1.67;;;;;;;;;;6148046;23;20005;-77
2022/09/30 07:07:36;;;;;;;1.45;1.38;;;;;;;;;;6150095;23;20084;-77
2022/09/30 07:10:03;;;;;;;1.38;1.23;;;11.60;99.90;;;;;;6138453;23;20420;-75
2022/09/30 07:12:29;;;;;;;2.05;1.48;;;;;;;;;;6148029;23;20073;-76
2022/09/30 07:14:55;;;;;;;2.83;1.60;;;;;;;;;;6146246;23;20651;-77
2022/09/30 07:17:22;;;;;;;2.50;1.63;;;;;;;;;;6148505;23;20002;-77
2022/09/30 07:19:50;;;;;;;2.08;1.50;;;;;;;;;;6140243;23;20013;-77
2022/09/30 07:22:29;;;;;;;4.05;1.38;;;;;;;;;;6147707;23;20032;-77
2022/09/30 07:24:59;;;;;;;4.18;1.52;;;10.80;99.90;;;;;;6148750;23;20429;-77
2022/09/30 07:27:26;;;;;;;1.52;1.40;;;11.00;99.90;;;;;;6148615;23;20010;-77
2022/09/30 07:29:53;;;;;;;1.60;1.50;;;;;;;;;;6140371;23;20056;-77
2022/09/30 07:32:19;;;;;;;4.32;1.80;;;11.70;99.90;;;;;;6147759;23;20028;-76
2022/09/30 07:34:45;;;;;;;6.57;1.50;;;;;;;;;;6149537;23;20471;-76
2022/09/30 07:37:14;;;;;;;1.75;1.52;;;11.20;99.90;;;;;;6147831;23;19998;-76
2022/09/30 07:39:44;;;;;;;1.52;1.42;;;11.30;99.30;;;;;;6143804;23;20009;-77
2022/09/30 07:42:11;;;;;;;1.48;1.38;;;11.20;99.70;;;;;;6146848;23;20010;-77
2022/09/30 07:44:40;;;;;;;3.17;1.53;;;11.10;99.90;;;;;;6148996;23;20445;-77
2022/09/30 07:47:06;;;;;;;2.97;2.10;;;;;;;;;;6148521;23;20009;-77
2022/09/30 07:49:33;;;;;;;2.40;1.92;;;;;;;;;;6142070;23;20009;-77
2022/09/30 07:51:59;;;;;;;2.10;1.50;;;11.50;99.90;;;;;;6146489;23;20009;-76
2022/09/30 07:54:27;;;;;;;1.35;1.25;;;11.80;99.90;;;;;;6149415;23;20009;-84
2022/09/30 07:56:53;;;;;;;1.38;1.27;;;11.40;99.90;;;;;;6147788;23;20006;-87
2022/09/30 07:59:20;;;;;;;1.58;1.35;;;;;;;;;;6143190;23;20012;-89
2022/09/30 08:01:47;;;;;;;1.70;1.58;;;;;;;;;;6141223;23;20006;-76
2022/09/30 08:04:14;;;;;;;1.70;1.33;;;11.80;99.90;;;;;;6150797;23;20035;-76
2022/09/30 08:06:45;;;;;;;2.03;1.50;;;12.30;99.90;;;;;;6150626;23;20093;-76
2022/09/30 08:09:11;;;;;;;1.70;1.40;;;;;;;;;;6147732;23;20040;-77
2022/09/30 08:11:37;;;;;;;1.70;1.60;;;13.20;98.60;;;;;;6138435;23;20013;-76
2022/09/30 08:14:04;;;;;;;4.30;1.85;;;13.90;97.10;;;;;;6151429;23;20112;-76
2022/09/30 08:16:30;;;;;;;2.50;2.30;;;;;;;;;;6150205;23;20028;-77
2022/09/30 08:18:57;;;;;;;2.60;2.40;;;19.30;86.80;;;;;;6150751;23;20504;-75
2022/09/30 08:21:23;;;;;;;2.85;2.65;;;23.90;81.30;;;;;;6134706;23;20001;-74
2022/09/30 08:23:49;;;;;;;2.03;1.92;;;27.50;69.90;;;;;;6150299;23;20055;-81
2022/09/30 08:26:15;;;;;;;1.63;1.52;;;29.30;59.10;;;;;;6150057;23;20441;-80
2022/09/30 08:28:45;;;;;;;1.65;1.40;;;29.10;54.80;;;;;;6150387;23;20029;-80
2022/09/30 08:31:14;;;;;;;2.35;1.10;;;28.60;48.90;;;;;;6136061;23;20565;-80
2022/09/30 08:33:40;;;;;;;0.93;0.85;;;27.90;52.00;;;;;;6150094;23;20009;-79
2022/09/30 08:36:17;;;;;;;1.45;1.30;;;26.70;47.20;;;;;;6150430;23;20009;-80
2022/09/30 08:38:43;;;;;;;1.40;1.15;;;;;;;;;;6150676;23;20028;-79
2022/09/30 08:41:30;;;;;;;1.30;0.40;;;25.00;49.70;;;;;;6136741;23;20437;-82
2022/09/30 08:44:20;;;;;;;1.27;0.73;;;22.20;63.50;;;;;;6149877;23;20005;-81
2022/09/30 08:47:29;;;;;;;0.75;0.75;;;19.30;58.00;;;;;;6150574;23;20006;-78
2022/09/30 08:50:22;;;;;;;1.05;0.80;;;17.80;65.30;;;;;;6141432;23;20625;-78
2022/09/30 08:52:51;;;;;;;1.75;1.00;;;17.10;69.00;;;;;;6147949;23;20612;-78
2022/09/30 08:55:25;;;;;;;1.98;1.08;;;16.60;83.50;;;;;;6150034;23;20714;-77
2022/09/30 08:57:54;;;;;;;1.10;1.00;;;16.10;77.70;;;;;;6150896;23;20468;-82
2022/09/30 09:00:20;;;;;;;2.10;1.13;;;16.10;74.40;;;;;;6141853;23;20644;-83
2022/09/30 09:02:59;;;;;;;1.10;1.00;;;15.40;74.90;;;;;;6147894;23;20063;-79
2022/09/30 09:05:25;;;;;;;0.88;0.82;;;;;;;;;;6151192;23;20005;-78
2022/09/30 09:08:21;;;;;;;1.30;1.20;;;15.80;76.50;;;;;;6150593;23;20009;-79
2022/09/30 09:11:15;;;;;;;1.50;1.20;;;16.00;88.90;;;;;;6139973;23;20013;-79
2022/09/30 09:14:01;;;;;;;2.08;1.88;;;18.70;70.90;;;;;;6149413;23;20036;-79
2022/09/30 09:16:37;;;;;;;1.35;1.25;;;21.30;65.20;;;;;;6149867;23;20093;-80
2022/09/30 09:19:07;;;;;;;1.20;1.08;;;22.60;57.80;;;;;;6150702;23;20015;-79
2022/09/30 09:21:33;;;;;;;1.73;1.63;;;;;;;;;;6140620;23;20009;-80
2022/09/30 09:24:01;;;;;;;1.45;1.35;;;29.30;49.20;;;;;;6150069;23;20310;-80
2022/09/30 09:26:33;;;;;;;0.68;0.50;;;29.40;53.20;;;;;;6149864;23;20310;-81
2022/09/30 09:29:17;;;;;;;0.70;0.50;;;27.60;48.70;;;;;;6150314;23;20037;-83
2022/09/30 09:31:43;;;;;;;0.20;0.20;;;;;;;;;;6141459;23;20477;-82
2022/09/30 09:34:11;;;;;;;0.65;0.43;;;27.40;55.10;;;;;;6150385;23;20076;-81
2022/09/30 09:37:06;;;;;;;0.73;0.43;;;26.30;56.80;;;;;;6149719;23;20001;-82
2022/09/30 09:39:50;;;;;;;0.70;0.20;;;24.30;49.80;;;;;;6141345;23;20531;-82
2022/09/30 09:42:30;;;;;;;0.60;0.40;;;22.80;51.40;;;;;;6147586;23;20008;-79
2022/09/30 09:45:21;;;;;;;0.75;0.47;;;21.50;53.80;;;;;;6150085;23;20483;-79
2022/09/30 09:47:52;;;;;;;4.95;0.43;;;20.80;55.60;;;;;;6085614;23;20399;-79
2022/09/30 09:50:47;;;;;;;2.15;0.50;;;20.10;57.00;;;;;;6075062;23;20062;-78
2022/09/30 09:53:34;;;;;;;0.85;0.55;;;18.40;61.10;;;;;;6084665;23;20013;-78
2022/09/30 09:56:02;;;;;;;0.73;0.52;;;17.50;61.80;;;;;;6088606;23;20351;-78
2022/09/30 09:58:28;;;;;;;0.55;0.55;;;;;;;;;;6085637;23;20026;-80
2022/09/30 10:01:14;;;;;;;0.55;0.55;;;16.70;65.40;;;;;;6075393;23;20017;-77
2022/09/30 10:03:42;;;;;;;0.70;0.70;;;16.60;78.80;;;;;;6087397;23;20686;-82
2022/09/30 10:06:11;;;;;;;1.17;0.80;;;17.20;75.50;;;;;;6087052;23;20085;-83
2022/09/30 10:08:54;;;;;;;1.10;1.10;;;20.60;61.10;;;;;;6086152;23;20086;-83
2022/09/30 10:11:22;;;;;;;1.10;1.10;;;24.80;52.80;;;;;;6072618;23;20022;-86
2022/09/30 10:13:50;;;;;;;1.00;0.93;;;26.90;48.00;;;;;;6087001;23;20009;-79
2022/09/30 10:16:31;;;;;;;1.75;0.40;;;28.90;44.30;;;;;;6086949;23;20010;-79
2022/09/30 10:18:58;;;;;;;0.73;0.20;;;28.00;44.30;;;;;;6086840;23;20071;-79
2022/09/30 10:21:27;;;;;;;0.25;0.20;;;25.80;55.20;;;;;;6073604;23;20014;-78
2022/09/30 10:23:54;;;;;;;0.52;0.30;;;;;;;;;;6098974;23;20013;-78
2022/09/30 10:26:19;;;;;;;0.40;0.20;;;;;;;;;;6149843;23;20096;-78
2022/09/30 10:28:48;;;;;;;1.25;0.20;;;20.40;51.30;;;;;;6149760;23;20810;-78
2022/09/30 10:31:33;;;;;;;0.50;0.50;;;19.60;55.60;;;;;;6136116;23;20016;-79
2022/09/30 10:34:19;;;;;;;0.90;0.50;;;18.60;57.10;;;;;;6148841;23;20006;-77
2022/09/30 10:36:45;;;;;;;0.40;0.30;;;17.70;61.20;;;;;;6149202;23;20340;-78
2022/09/30 10:39:22;;;;;;;0.40;0.40;;;17.80;59.40;;;;;;6147025;23;20148;-79
2022/09/30 10:41:49;;;;;;;;;;;17.80;59.90;;;;;;6140203;23;20463;-78
2022/09/30 10:44:22;;;;;;;0.50;0.50;;;18.70;70.00;;;;;;6148423;23;20079;-77
2022/09/30 10:46:49;;;;;;;0.50;0.50;;;18.90;56.80;;;;;;6149950;23;20074;-77
2022/09/30 10:49:34;;;;;;;0.50;0.50;;;18.40;57.60;;;;;;6145597;23;20013;-77
2022/09/30 10:52:01;;;;;;;0.52;0.52;;;17.00;63.90;;;;;;6144522;23;20043;-78
2022/09/30 10:54:51;;;;;;;0.65;0.65;;;16.40;74.90;;;;;;6148266;23;19998;-80
2022/09/30 10:57:29;;;;;;;0.60;0.60;;;15.90;77.30;;;;;;6150489;23;20023;-81
2022/09/30 11:00:01;;;;;;;10.30;1.20;;;15.50;65.90;;;;;;6135647;23;20357;-79
2022/09/30 11:02:40;;;;;;;1.65;1.30;;;15.00;81.50;;;;;;6147733;23;20017;-79
2022/09/30 11:05:06;;;;;;;1.20;1.10;;;;;;;;;;6148963;23;20005;-77
2022/09/30 11:07:40;;;;;;;1.65;1.55;;;14.50;84.00;;;;;;6149944;23;20014;-79
2022/09/30 11:10:19;;;;;;;4.57;1.33;;;14.70;86.20;;;;;;6135105;23;20017;-80
2022/09/30 11:12:59;;;;;;;1.20;1.20;;;14.40;73.20;;;;;;6148371;23;20485;-81
2022/09/30 11:15:32;;;;;;;2.40;1.90;;;14.70;79.60;;;;;;6148034;23;20064;-80
2022/09/30 11:17:58;;;;;;;2.42;1.73;;;;;;;;;;6149886;23;20061;-80
2022/09/30 11:20:35;;;;;;;1.80;1.70;;;15.00;77.80;;;;;;6135943;23;20010;-80
2022/09/30 11:23:20;;;;;;;1.93;1.33;;;15.30;74.30;;;;;;6148222;23;20439;-81
2022/09/30 11:25:56;;;;;;;1.23;1.20;;;15.40;84.60;;;;;;6148631;23;20225;-80
2022/09/30 11:28:43;;;;;;;1.23;1.17;;;15.70;83.50;;;;;;6150175;23;20005;-80
2022/09/30 11:31:25;;;;;;;3.15;1.25;;;15.50;70.50;;;;;;6134164;23;20044;-79
2022/09/30 11:34:17;;;;;;;1.20;1.08;;;15.20;71.40;;;;;;6148489;23;20016;-80
2022/09/30 11:37:10;;;;;;;0.77;0.77;;;14.90;72.70;;;;;;6147582;23;20005;-79
2022/09/30 11:39:36;;;;;;;1.90;1.05;;;;;;;;;;6140710;23;20074;-80
2022/09/30 11:42:01;;;;;;;1.88;1.30;;;;;;;;;;6147998;23;20003;-83
2022/09/30 11:44:33;;;;;;;0.80;0.80;;;14.40;75.20;;;;;;6149204;23;20002;-83
2022/09/30 11:47:14;;;;;;;0.95;0.95;;;14.40;75.10;;;;;;6150385;23;20005;-84
2022/09/30 11:50:07;;;;;;;1.40;1.30;;;14.70;74.80;;;;;;6140136;23;20028;-84
2022/09/30 11:52:33;;;;;;;1.52;1.35;;;;;;;;;;6149655;23;20012;-85
2022/09/30 11:55:26;;;;;;;1.10;1.10;;;15.20;73.10;;;;;;6150734;23;20005;-84
2022/09/30 11:58:07;;;;;;;0.90;0.90;;;15.30;73.10;;;;;;6150656;23;20068;-83
2022/09/30 12:00:36;;;;;;;1.33;1.23;;;15.30;80.40;;;;;;6137652;23;20060;-82
2022/09/30 12:03:21;;;;;;;2.15;1.13;;;15.30;73.10;;;;;;6149306;23;20010;-82
2022/09/30 12:06:33;;;;;;;1.77;1.15;;;15.50;72.70;;;;;;6150619;23;20056;-85
2022/09/30 12:09:15;;;;;;;1.23;1.13;;;16.00;76.60;;;;;;6085792;23;20388;-87
2022/09/30 12:11:56;;;;;;;1.85;1.20;;;16.30;70.50;;;;;;6055516;23;20402;-89
2022/09/30 12:14:48;;;;;;;1.90;1.80;;;17.30;66.80;;;;;;6087188;23;20010;-87
2022/09/30 12:17:36;;;;;;;1.50;1.40;;;20.40;65.90;;;;;;6065515;23;20010;-84
2022/09/30 12:20:10;;;;;;;1.40;1.30;;;22.00;57.00;;;;;;6051022;23;20113;-88
2022/09/30 12:22:39;;;;;;;0.85;0.85;;;22.00;58.90;;;;;;6087393;23;20475;-81
2022/09/30 12:25:27;;;;;;;1.67;1.10;;;21.50;54.80;;;;;;6088546;23;20014;-86
2022/09/30 12:31:18;;;;;;;1.40;0.80;;;19.70;55.10;;;;;;6073481;23;20142;-77
2022/09/30 12:33:52;;;;;;;1.55;1.00;;;19.00;57.90;;;;;;6063924;23;20006;-77
2022/09/30 12:36:32;;;;;;;2.05;1.02;;;19.50;57.80;;;;;;6087882;23;20025;-77
2022/09/30 12:39:19;;;;;;;1.33;0.80;;;19.50;57.90;;;;;;6089396;23;20013;-77
2022/09/30 12:42:18;;;;;;;2.92;0.60;;;19.10;58.90;;;;;;6077926;23;20014;-83
2022/09/30 12:45:21;;;;;;;1.02;0.80;;;18.10;64.20;;;;;;6091621;23;20466;-88
2022/09/30 12:47:55;;;;;;;0.70;0.70;;;17.70;62.40;;;;;;6151727;23;20381;-88
2022/09/30 12:50:27;;;;;;;1.13;1.02;;;17.20;64.00;;;;;;6137027;23;20472;-81
2022/09/30 12:52:58;;;;;;;1.35;1.10;;;16.90;64.90;;;;;;6147498;23;20005;-75
2022/09/30 12:55:35;;;;;;;1.13;1.00;;;16.90;65.70;;;;;;6150730;23;20005;-84
2022/09/30 12:58:04;;;;;;;1.33;1.15;;;16.90;66.30;;;;;;6149734;23;20018;-84
2022/09/30 13:00:33;;;;;;;1.10;1.10;;;17.10;65.80;;;;;;6137233;23;20320;-82
2022/09/30 13:03:14;;;;;;;1.30;1.02;;;16.80;69.00;;;;;;6148463;23;19997;-83
2022/09/30 13:05:41;;;;;;;0.90;0.90;;;;;;;;;;6149851;23;20056;-80
2022/09/30 13:08:08;;;;;;;;;;;16.80;65.90;;;;;;6150973;23;20006;-79
2022/09/30 13:10:43;;;;;;;1.02;1.02;;;16.40;73.20;;;;;;6136168;23;19959;-80
2022/09/30 13:13:09;;;;;;;1.35;1.27;;;;;;;;;;6148571;23;20005;-79
2022/09/30 13:15:35;;;;;;;2.28;1.00;;;;;;;;;;6149371;23;20032;-79
2022/09/30 13:18:19;;;;;;;1.20;1.10;;;16.10;69.80;;;;;;6151157;23;20051;-81
2022/09/30 13:21:03;;;;;;;1.00;1.00;;;16.10;69.70;;;;;;6136335;23;20013;-80
2022/09/30 13:23:42;;;;;;;1.20;1.10;;;16.10;70.30;;;;;;6148272;23;20064;-80
2022/09/30 13:26:26;;;;;;;1.35;1.13;;;15.80;84.50;;;;;;6150514;23;20032;-75
2022/09/30 13:29:01;;;;;;;1.65;1.55;;;15.80;71.60;;;;;;6150382;23;20002;-86
2022/09/30 13:31:31;;;;;;;1.30;1.20;;;16.00;77.60;;;;;;6136699;23;20014;-87
2022/09/30 13:34:07;;;;;;;1.80;1.40;;;15.80;72.10;;;;;;6150128;23;20001;-86
2022/09/30 13:36:57;;;;;;;1.38;1.23;;;15.80;72.10;;;;;;6147763;23;20010;-88
2022/09/30 13:39:33;;;;;;;1.20;1.20;;;15.60;72.90;;;;;;6147389;23;20005;-78
2022/09/30 13:42:28;;;;;;;2.95;1.20;;;15.50;73.80;;;;;;6142448;23;20063;-80
2022/09/30 13:45:12;;;;;;;1.00;1.00;;;15.50;76.10;;;;;;6148153;23;20033;-79
2022/09/30 13:47:59;;;;;;;1.40;1.30;;;14.20;74.40;;;;;;6149975;23;20005;-82
2022/09/30 13:50:36;;;;;;;;;;;15.20;75.60;;;;;;6137671;23;20010;-83
2022/09/30 13:53:11;;;;;;;1.73;1.30;;;15.30;75.90;;;;;;6149053;23;19968;-74
2022/09/30 13:55:49;;;;;;;1.88;1.50;;;15.70;74.70;;;;;;6149464;23;20016;-78